EGPD/ABZ METAR and TAF weather

Enter ICAO airport designator
Station Type Date Time Source
EGPD METAR 2019/10/15 08:50 UTC NOAA

EGPD 150850Z VRB03KT 9999 BKN014 08/08 Q1003


Station Type Date Time Source
EGPD Decoded METAR 2019/10/15 08:50 UTC NOAA

Aberdeen / Dyce, United Kingdom (EGPD) 57-12N 002-13W 0M
Oct 15, 2019 - 04:50 AM EDT / 2019.10.15 0850 UTC
Wind: Variable at 3 MPH (3 KT):0
Visibility: greater than 7 mile(s):0
Sky conditions: mostly cloudy
Temperature: 46 F (8 C)
Dew Point: 46 F (8 C)
Relative Humidity: 100%
Pressure (altimeter): 29.62 in. Hg (1003 hPa)
ob: EGPD 150850Z VRB03KT 9999 BKN014 08/08 Q1003
cycle: 9

Station Type Date Time Source
EGPD TAF 2019/10/15 06:26 UTC NOAA

TAF
AMD EGPD 150521Z 1506/1606 32005KT 9999 BKN012
TEMPO 1506/1509 SCT016 PROB40
TEMPO 1506/1509 0300 FG VV///
TEMPO 1509/1518 6000 -RADZ BKN008 PROB40
TEMPO 1509/1516 4000 RADZ BKN004
BECMG 1518/1521 SCT020
TEMPO 1518/1606 BKN012 PROB40
TEMPO 1521/1524 3000 BR BKN006
BECMG 1603/1606 14010KT PROB30
TEMPO 1603/1606 6000 BKN006

Example: see airport list